Time;durP1;ratioP1;P1;durP2;ratioP2;P2;SDS_P1;SDS_P2;PMS_P1;PMS_P2;Temp;Humidity;BMP_temperature;BMP_pressure;BME280_temperature;BME280_humidity;BME280_pressure;Samples;Min_cycle;Max_cycle;Signal;HPM_P1;HPM_P2
2024/02/18 00:02:15;;;;;;;2.95;2.13;;;19.20;61.70;;;;;;5005005;28;20029;-64
2024/02/18 00:04:41;;;;;;;2.88;2.00;;;19.20;61.80;;;;;;5014691;28;20459;-64
2024/02/18 00:07:06;;;;;;;1.90;1.70;;;19.20;61.90;;;;;;5015210;28;20037;-66
2024/02/18 00:09:32;;;;;;;2.83;2.53;;;19.20;61.70;;;;;;5020612;28;20025;-65
2024/02/18 00:11:58;;;;;;;2.30;1.80;;;19.20;61.80;;;;;;5019195;28;20033;-66
2024/02/18 00:14:24;;;;;;;2.35;1.80;;;19.20;61.70;;;;;;5000283;28;20075;-66
2024/02/18 00:16:49;;;;;;;1.90;1.65;;;19.20;61.80;;;;;;4996781;28;20053;-65
2024/02/18 00:19:15;;;;;;;2.42;1.90;;;19.20;61.80;;;;;;5020629;28;20111;-66
2024/02/18 00:21:40;;;;;;;2.60;2.40;;;19.10;61.70;;;;;;5022485;28;20075;-66
2024/02/18 00:24:08;;;;;;;2.17;1.95;;;19.10;61.80;;;;;;4997926;28;20025;-66
2024/02/18 00:26:36;;;;;;;2.17;1.98;;;19.10;61.70;;;;;;5021385;28;20057;-66
2024/02/18 00:29:02;;;;;;;2.53;1.80;;;19.10;61.80;;;;;;5019215;28;20026;-68
2024/02/18 00:31:27;;;;;;;2.13;1.92;;;19.10;61.80;;;;;;5023293;28;20083;-65
2024/02/18 00:33:53;;;;;;;2.33;2.13;;;19.10;61.70;;;;;;5019208;28;20132;-65
2024/02/18 00:36:20;;;;;;;1.75;1.63;;;19.10;61.70;;;;;;5021226;28;20037;-65
2024/02/18 00:38:46;;;;;;;3.35;2.00;;;19.10;61.70;;;;;;5019536;28;20037;-65
2024/02/18 00:41:11;;;;;;;1.92;1.70;;;19.10;61.80;;;;;;5021972;28;20133;-65
2024/02/18 00:43:36;;;;;;;2.15;1.52;;;19.10;61.80;;;;;;5019694;28;20127;-65
2024/02/18 00:46:02;;;;;;;1.98;1.77;;;19.10;61.80;;;;;;5018365;28;20026;-64
2024/02/18 00:48:28;;;;;;;2.58;1.88;;;19.10;61.70;;;;;;5021133;28;20079;-64
2024/02/18 00:50:53;;;;;;;2.28;1.92;;;19.10;61.70;;;;;;5022980;28;20507;-65
2024/02/18 00:53:19;;;;;;;2.45;2.10;;;19.00;61.70;;;;;;5019559;28;20026;-64
2024/02/18 00:55:44;;;;;;;2.28;2.08;;;19.00;61.70;;;;;;5017655;28;20188;-64
2024/02/18 00:58:10;;;;;;;2.20;2.00;;;19.00;61.70;;;;;;5016353;28;20038;-64
2024/02/18 01:00:37;;;;;;;1.98;1.77;;;19.00;61.70;;;;;;5023100;28;20060;-65
2024/02/18 01:03:03;;;;;;;1.92;1.70;;;19.00;61.80;;;;;;5019338;28;20030;-65
2024/02/18 01:05:28;;;;;;;2.42;1.90;;;19.00;61.70;;;;;;5018019;28;20025;-65
2024/02/18 01:07:54;;;;;;;1.77;1.67;;;19.00;61.70;;;;;;5013679;28;20036;-66
2024/02/18 01:10:19;;;;;;;1.83;1.45;;;19.00;61.80;;;;;;5016648;28;20060;-65
2024/02/18 01:12:44;;;;;;;2.40;1.83;;;19.00;61.70;;;;;;5014770;28;20038;-64
2024/02/18 01:15:10;;;;;;;1.73;1.58;;;19.00;61.60;;;;;;5017143;28;20047;-64
2024/02/18 01:17:35;;;;;;;2.28;2.08;;;19.00;61.60;;;;;;5018296;28;20021;-65
2024/02/18 01:20:01;;;;;;;1.52;1.30;;;18.90;61.60;;;;;;5015050;28;20018;-65
2024/02/18 01:22:26;;;;;;;2.45;1.83;;;18.90;61.60;;;;;;5018054;28;20517;-65
2024/02/18 01:24:53;;;;;;;2.10;1.85;;;18.90;61.60;;;;;;5023086;28;20121;-64
2024/02/18 01:27:19;;;;;;;1.48;1.38;;;18.90;61.70;;;;;;5017840;28;20034;-65
2024/02/18 01:29:44;;;;;;;2.00;1.80;;;18.90;61.90;;;;;;5018540;28;20036;-67
2024/02/18 01:32:10;;;;;;;1.40;1.30;;;18.90;61.60;;;;;;5017168;28;20225;-64
2024/02/18 01:34:35;;;;;;;1.42;1.33;;;18.90;61.70;;;;;;5019871;28;20220;-63
2024/02/18 01:37:00;;;;;;;1.58;1.48;;;18.90;61.70;;;;;;5018667;28;20029;-65
2024/02/18 01:39:26;;;;;;;1.50;1.40;;;18.80;61.70;;;;;;5019458;28;20030;-66
2024/02/18 01:41:52;;;;;;;1.55;1.45;;;18.90;61.70;;;;;;5018616;28;20053;-65
2024/02/18 01:44:18;;;;;;;1.70;1.60;;;18.80;61.80;;;;;;5014532;28;20036;-65
2024/02/18 01:46:44;;;;;;;1.42;1.33;;;18.80;61.80;;;;;;5014098;28;20025;-65
2024/02/18 01:49:11;;;;;;;1.40;1.23;;;18.90;61.70;;;;;;5020612;28;20029;-65
2024/02/18 01:51:37;;;;;;;1.70;1.60;;;18.80;61.70;;;;;;5018386;28;20746;-65
2024/02/18 01:54:04;;;;;;;1.63;1.50;;;18.80;61.80;;;;;;5016701;28;20117;-63
2024/02/18 01:56:29;;;;;;;2.38;1.40;;;18.90;61.80;;;;;;5002900;28;20787;-64
2024/02/18 01:58:55;;;;;;;1.52;1.40;;;18.80;62.30;;;;;;5016436;28;20092;-65
2024/02/18 02:01:20;;;;;;;1.52;1.42;;;18.90;61.70;;;;;;5019237;28;20049;-65
2024/02/18 02:03:47;;;;;;;1.67;1.58;;;18.90;61.40;;;;;;5013377;28;20035;-66
2024/02/18 02:06:15;;;;;;;1.45;1.35;;;19.00;61.30;;;;;;5017805;28;20115;-66
2024/02/18 02:08:40;;;;;;;1.60;1.45;;;19.00;61.00;;;;;;5023989;28;20116;-65
2024/02/18 02:11:06;;;;;;;1.92;1.70;;;19.10;60.70;;;;;;5020798;28;20152;-62
2024/02/18 02:13:32;;;;;;;1.63;1.45;;;19.20;60.50;;;;;;5023729;28;20056;-65
2024/02/18 02:15:58;;;;;;;1.42;1.15;;;19.40;60.30;;;;;;5021686;28;20037;-65
2024/02/18 02:18:24;;;;;;;1.55;1.10;;;19.50;60.00;;;;;;5023958;28;20441;-65
2024/02/18 02:20:49;;;;;;;2.17;1.30;;;19.60;59.80;;;;;;5022474;28;20049;-65
2024/02/18 02:23:16;;;;;;;1.60;1.20;;;19.70;59.50;;;;;;5019118;28;20061;-65
2024/02/18 02:25:42;;;;;;;1.30;1.20;;;19.80;59.20;;;;;;5019514;28;20555;-65
2024/02/18 02:28:24;;;;;;;1.10;1.05;;;19.90;59.00;;;;;;5020435;28;20029;-64
2024/02/18 02:30:50;;;;;;;1.33;1.15;;;20.00;58.80;;;;;;5020269;28;20670;-64
2024/02/18 02:33:20;;;;;;;1.10;0.98;;;20.10;58.70;;;;;;5019084;28;20111;-65
2024/02/18 02:35:47;;;;;;;0.88;0.77;;;20.20;58.50;;;;;;5022599;28;20041;-65
2024/02/18 02:38:13;;;;;;;1.30;1.10;;;20.20;58.30;;;;;;5000047;28;20037;-65
2024/02/18 02:40:38;;;;;;;1.13;0.95;;;20.30;58.30;;;;;;5023885;28;20570;-65
2024/02/18 02:43:04;;;;;;;1.10;1.00;;;20.30;58.30;;;;;;5021378;28;20057;-65
2024/02/18 02:45:31;;;;;;;1.00;0.90;;;20.30;58.30;;;;;;5023647;28;20026;-64
2024/02/18 02:47:56;;;;;;;1.15;0.88;;;20.30;58.30;;;;;;5022438;28;20117;-65
2024/02/18 02:50:22;;;;;;;1.20;0.82;;;20.30;58.40;;;;;;5005966;28;20128;-64
2024/02/18 02:52:47;;;;;;;1.13;1.02;;;20.20;58.50;;;;;;5019399;28;20030;-64
2024/02/18 02:55:13;;;;;;;1.23;1.13;;;20.20;58.60;;;;;;5021478;28;20068;-65
2024/02/18 02:57:39;;;;;;;1.10;1.00;;;20.10;58.60;;;;;;5024844;28;20026;-65
2024/02/18 03:00:08;;;;;;;1.10;1.00;;;20.10;58.80;;;;;;5008466;28;20076;-66
2024/02/18 03:02:43;;;;;;;1.20;1.10;;;20.00;58.90;;;;;;5016277;28;20488;-65
2024/02/18 03:05:09;;;;;;;1.30;1.10;;;20.00;59.00;;;;;;5010441;28;20065;-64
2024/02/18 03:07:35;;;;;;;1.40;1.20;;;20.00;59.10;;;;;;5013733;28;20585;-65
2024/02/18 03:10:02;;;;;;;1.95;1.00;;;19.90;59.20;;;;;;5013218;28;20040;-64
2024/02/18 03:12:28;;;;;;;2.08;0.98;;;19.80;59.20;;;;;;5018875;28;20026;-65
2024/02/18 03:14:54;;;;;;;1.00;0.90;;;19.80;59.30;;;;;;5013411;28;20045;-65
2024/02/18 03:17:19;;;;;;;1.00;0.90;;;19.80;59.40;;;;;;5019008;28;20087;-64
2024/02/18 03:19:45;;;;;;;1.77;0.90;;;19.80;59.60;;;;;;5020488;28;20350;-64
2024/02/18 03:22:10;;;;;;;1.38;0.88;;;19.70;59.60;;;;;;5026092;28;20055;-61
2024/02/18 03:24:37;;;;;;;1.20;1.10;;;19.70;59.50;;;;;;5022885;28;20045;-65
2024/02/18 03:27:03;;;;;;;1.42;1.23;;;19.60;59.60;;;;;;5023128;28;20030;-64
2024/02/18 03:29:28;;;;;;;1.10;1.00;;;19.60;59.60;;;;;;5021723;28;20029;-64
2024/02/18 03:31:55;;;;;;;1.15;1.02;;;19.60;59.70;;;;;;5022584;28;20623;-64
2024/02/18 03:34:21;;;;;;;1.23;1.13;;;19.60;59.70;;;;;;5021125;28;20029;-65
2024/02/18 03:36:46;;;;;;;1.35;1.25;;;19.50;59.80;;;;;;5006551;28;20658;-64
2024/02/18 03:39:12;;;;;;;1.85;1.05;;;19.50;59.70;;;;;;5004603;28;20448;-64
2024/02/18 03:41:37;;;;;;;1.02;0.93;;;19.40;59.80;;;;;;5021306;28;20116;-64
2024/02/18 03:44:03;;;;;;;1.10;1.00;;;19.40;59.80;;;;;;5018537;28;20092;-64
2024/02/18 03:46:28;;;;;;;1.00;0.80;;;19.40;60.00;;;;;;5022994;28;20040;-64
2024/02/18 03:48:54;;;;;;;1.60;1.15;;;19.40;60.00;;;;;;5022083;28;20048;-64
2024/02/18 03:51:19;;;;;;;1.90;1.33;;;19.40;60.00;;;;;;5016955;28;20487;-66
2024/02/18 03:53:45;;;;;;;1.15;1.05;;;19.40;60.00;;;;;;5019121;28;20038;-64
2024/02/18 03:56:10;;;;;;;1.67;1.30;;;19.30;60.10;;;;;;5021352;28;20083;-65
2024/02/18 03:58:36;;;;;;;3.10;1.38;;;19.30;60.20;;;;;;5022405;28;20048;-64
2024/02/18 04:01:01;;;;;;;1.35;1.25;;;19.30;60.30;;;;;;5016809;28;20033;-64
2024/02/18 04:03:27;;;;;;;1.40;1.30;;;19.30;60.30;;;;;;4995794;28;20168;-65
2024/02/18 04:05:52;;;;;;;1.50;1.00;;;19.20;60.30;;;;;;4999377;28;20524;-64
2024/02/18 04:08:18;;;;;;;1.45;1.10;;;19.20;60.30;;;;;;5017237;28;20034;-65
2024/02/18 04:10:43;;;;;;;1.20;1.10;;;19.20;60.20;;;;;;5018783;28;20455;-64
2024/02/18 04:13:10;;;;;;;1.88;1.50;;;19.20;60.40;;;;;;5018312;28;20081;-64
2024/02/18 04:15:35;;;;;;;1.30;1.20;;;19.20;60.60;;;;;;5019589;28;20049;-64
2024/02/18 04:18:01;;;;;;;1.55;1.40;;;19.20;60.50;;;;;;5018363;28;20030;-65
2024/02/18 04:20:26;;;;;;;1.30;1.20;;;19.20;60.60;;;;;;5022954;28;20408;-64
2024/02/18 04:22:52;;;;;;;1.20;1.10;;;19.20;60.50;;;;;;5019014;28;20527;-65
2024/02/18 04:25:17;;;;;;;1.38;1.20;;;19.10;60.60;;;;;;5017136;28;20038;-64
2024/02/18 04:27:43;;;;;;;1.88;1.30;;;19.10;60.50;;;;;;5021132;28;20124;-64
2024/02/18 04:30:09;;;;;;;1.52;1.30;;;19.10;60.60;;;;;;5014783;28;20061;-64
2024/02/18 04:32:34;;;;;;;1.58;1.05;;;19.10;60.50;;;;;;5019962;28;20036;-65
2024/02/18 04:34:59;;;;;;;1.50;1.38;;;19.10;60.60;;;;;;5019720;28;20034;-64
2024/02/18 04:37:25;;;;;;;1.10;1.00;;;19.10;60.60;;;;;;5021112;28;20033;-64
2024/02/18 04:39:52;;;;;;;1.42;1.25;;;19.00;60.50;;;;;;5020674;28;20030;-65
2024/02/18 04:42:17;;;;;;;1.30;1.20;;;19.00;60.60;;;;;;5017956;28;20532;-64
2024/02/18 04:44:42;;;;;;;1.85;1.50;;;19.00;60.60;;;;;;5020936;28;20045;-65
2024/02/18 04:47:08;;;;;;;1.35;1.05;;;19.00;60.60;;;;;;5016995;28;20053;-64
2024/02/18 04:49:33;;;;;;;1.40;1.30;;;19.00;60.60;;;;;;5016847;28;20025;-64
2024/02/18 04:52:00;;;;;;;1.45;1.35;;;19.00;60.70;;;;;;5019188;28;20022;-64
2024/02/18 04:54:26;;;;;;;1.60;1.15;;;18.90;60.60;;;;;;5017481;28;20033;-64
2024/02/18 04:56:51;;;;;;;1.45;1.20;;;19.00;60.60;;;;;;5018994;28;20091;-64
2024/02/18 04:59:17;;;;;;;1.75;1.33;;;18.90;60.60;;;;;;5021259;28;20116;-65
2024/02/18 05:01:49;;;;;;;1.38;1.27;;;18.90;60.50;;;;;;5020960;28;20034;-63
2024/02/18 05:04:15;;;;;;;1.30;1.17;;;18.90;60.70;;;;;;5001685;28;20109;-64
2024/02/18 05:06:49;;;;;;;1.52;1.30;;;18.90;60.60;;;;;;5021174;28;20125;-64
2024/02/18 05:09:15;;;;;;;1.63;1.38;;;18.90;60.70;;;;;;5020922;28;20087;-64
2024/02/18 05:11:41;;;;;;;1.35;1.25;;;18.90;60.60;;;;;;5020121;28;20029;-64
2024/02/18 05:14:06;;;;;;;1.48;1.30;;;18.90;60.70;;;;;;5014637;28;20030;-64
2024/02/18 05:16:32;;;;;;;1.63;1.52;;;18.80;60.70;;;;;;5017236;28;20159;-64
2024/02/18 05:18:58;;;;;;;1.52;1.42;;;18.80;60.70;;;;;;5020028;28;20117;-65
2024/02/18 05:21:23;;;;;;;1.70;1.60;;;18.80;60.70;;;;;;5022084;28;20064;-64
2024/02/18 05:23:50;;;;;;;1.70;1.40;;;18.80;60.70;;;;;;5019043;28;20029;-64
2024/02/18 05:26:15;;;;;;;1.67;1.58;;;18.80;60.70;;;;;;5018187;28;20030;-64
2024/02/18 05:28:41;;;;;;;1.55;1.20;;;18.80;60.70;;;;;;4999783;28;20670;-65
2024/02/18 05:31:22;;;;;;;1.60;1.50;;;18.80;60.60;;;;;;5017119;28;20091;-64
2024/02/18 05:33:49;;;;;;;1.60;1.50;;;18.80;60.60;;;;;;5013240;28;20048;-65
2024/02/18 05:36:14;;;;;;;1.40;1.23;;;18.80;60.60;;;;;;5016202;28;20037;-65
2024/02/18 05:38:43;;;;;;;1.65;1.33;;;18.80;60.60;;;;;;5001486;28;20075;-65
2024/02/18 05:41:09;;;;;;;1.73;1.35;;;18.80;60.50;;;;;;5015498;28;20396;-64
2024/02/18 05:43:35;;;;;;;2.08;1.60;;;18.80;60.50;;;;;;5015155;28;20044;-65
2024/02/18 05:46:00;;;;;;;1.55;1.33;;;18.80;60.50;;;;;;5018855;28;20021;-65
2024/02/18 05:48:26;;;;;;;1.55;1.40;;;18.90;60.40;;;;;;5015905;28;20045;-64
2024/02/18 05:50:51;;;;;;;1.77;1.45;;;18.90;60.20;;;;;;4998113;28;20484;-64
2024/02/18 05:53:17;;;;;;;1.50;1.27;;;19.00;60.00;;;;;;5017680;28;20041;-65
2024/02/18 05:55:42;;;;;;;1.90;1.80;;;19.00;59.80;;;;;;5016375;28;20386;-65
2024/02/18 05:58:08;;;;;;;1.23;1.13;;;19.00;59.70;;;;;;5002403;28;20029;-65
2024/02/18 06:00:33;;;;;;;2.67;1.50;;;19.20;59.70;;;;;;5017980;28;20034;-66
2024/02/18 06:02:59;;;;;;;1.50;1.40;;;19.20;59.50;;;;;;5018502;28;20049;-65
2024/02/18 06:05:24;;;;;;;1.30;1.20;;;19.30;59.30;;;;;;5024277;28;20120;-65
2024/02/18 06:07:50;;;;;;;1.70;1.48;;;19.30;59.30;;;;;;5017607;28;20037;-65
2024/02/18 06:10:15;;;;;;;1.17;1.08;;;19.40;59.00;;;;;;5020373;28;20047;-65
2024/02/18 06:12:41;;;;;;;1.20;1.10;;;19.50;58.90;;;;;;5026357;28;20516;-65
2024/02/18 06:15:07;;;;;;;1.65;1.30;;;19.50;58.70;;;;;;5022611;28;20034;-64
2024/02/18 06:17:33;;;;;;;1.20;1.10;;;19.60;58.60;;;;;;5020706;28;20037;-66
2024/02/18 06:19:58;;;;;;;1.17;1.08;;;19.70;58.60;;;;;;5022716;28;20030;-66
2024/02/18 06:22:24;;;;;;;1.98;1.38;;;19.70;58.40;;;;;;5023800;28;20021;-63
2024/02/18 06:24:49;;;;;;;1.10;1.00;;;19.80;58.30;;;;;;5022527;28;20084;-65
2024/02/18 06:27:15;;;;;;;1.30;1.00;;;19.80;58.10;;;;;;5026146;28;20025;-65
2024/02/18 06:29:40;;;;;;;1.38;1.20;;;19.90;58.10;;;;;;5003620;28;20641;-65
2024/02/18 06:32:06;;;;;;;1.40;1.17;;;19.90;58.10;;;;;;5019147;28;20030;-66
2024/02/18 06:34:31;;;;;;;1.13;1.02;;;19.90;58.00;;;;;;5021615;28;20026;-66
2024/02/18 06:36:57;;;;;;;2.72;1.90;;;19.90;58.00;;;;;;5019982;28;20040;-65
2024/02/18 06:39:22;;;;;;;1.75;1.30;;;19.90;58.10;;;;;;5023453;28;20025;-65
2024/02/18 06:41:50;;;;;;;1.55;1.25;;;19.90;58.70;;;;;;5018491;28;20527;-65
2024/02/18 06:44:15;;;;;;;1.40;1.20;;;19.90;58.20;;;;;;5000320;28;20075;-66
2024/02/18 06:46:41;;;;;;;1.50;1.20;;;19.80;58.20;;;;;;5022071;28;20529;-65
2024/02/18 06:49:07;;;;;;;1.55;1.45;;;19.80;58.30;;;;;;5022264;28;20048;-65
2024/02/18 06:51:32;;;;;;;1.38;1.27;;;19.80;58.30;;;;;;5020159;28;20064;-65
2024/02/18 06:53:59;;;;;;;1.45;1.33;;;19.80;58.40;;;;;;5024420;28;20032;-66
2024/02/18 06:56:25;;;;;;;1.67;1.25;;;19.70;58.40;;;;;;5026240;28;20415;-65
2024/02/18 06:58:50;;;;;;;1.35;1.17;;;19.70;58.50;;;;;;5021551;28;20033;-65
2024/02/18 07:01:18;;;;;;;1.67;1.20;;;19.70;58.60;;;;;;5018445;28;20036;-66
2024/02/18 07:03:44;;;;;;;1.17;1.08;;;19.70;58.60;;;;;;5020599;28;20123;-64
2024/02/18 07:06:09;;;;;;;3.45;1.50;;;19.60;58.60;;;;;;5024244;28;20190;-65
2024/02/18 07:08:34;;;;;;;1.55;1.15;;;19.60;58.80;;;;;;5020351;28;20041;-65
2024/02/18 07:11:00;;;;;;;1.65;1.45;;;19.60;58.80;;;;;;5018524;28;20227;-66
2024/02/18 07:13:27;;;;;;;1.50;1.40;;;19.50;58.90;;;;;;5022124;28;20435;-65
2024/02/18 07:15:52;;;;;;;3.42;1.40;;;19.50;58.90;;;;;;5008279;28;20651;-64
2024/02/18 07:18:18;;;;;;;2.40;1.60;;;19.50;58.90;;;;;;5009778;28;20033;-64
2024/02/18 07:20:43;;;;;;;1.80;1.65;;;19.50;59.00;;;;;;5029933;28;20037;-64
2024/02/18 07:23:09;;;;;;;3.53;2.25;;;19.50;59.10;;;;;;5020779;28;20468;-65
2024/02/18 07:25:35;;;;;;;2.63;2.17;;;19.40;59.00;;;;;;5021279;28;20449;-66
2024/02/18 07:28:01;;;;;;;3.13;2.00;;;19.40;59.10;;;;;;5024782;28;20381;-66
2024/02/18 07:30:26;;;;;;;2.72;1.88;;;19.40;59.20;;;;;;5020877;28;20037;-65
2024/02/18 07:32:52;;;;;;;3.17;2.17;;;19.40;59.30;;;;;;5023854;28;20045;-65
2024/02/18 07:35:18;;;;;;;4.22;2.33;;;19.30;59.30;;;;;;5025069;28;20033;-65
2024/02/18 07:37:43;;;;;;;2.83;2.25;;;19.40;59.40;;;;;;5026011;28;20030;-64
2024/02/18 07:40:09;;;;;;;3.67;2.17;;;19.30;59.30;;;;;;5023731;28;20029;-65
2024/02/18 07:42:34;;;;;;;4.10;2.20;;;19.30;59.30;;;;;;5024293;28;20026;-67
2024/02/18 07:45:00;;;;;;;2.28;1.85;;;19.30;59.30;;;;;;5026293;28;20042;-64
2024/02/18 07:47:26;;;;;;;2.97;2.05;;;19.30;59.40;;;;;;5026289;28;20045;-64
2024/02/18 07:49:51;;;;;;;3.63;2.35;;;19.30;59.40;;;;;;5003825;28;20489;-66
2024/02/18 07:52:16;;;;;;;2.72;2.10;;;19.30;59.40;;;;;;5003960;28;20021;-64
2024/02/18 07:54:45;;;;;;;2.47;1.90;;;19.30;59.40;;;;;;5006475;28;20061;-64
2024/02/18 07:57:11;;;;;;;4.00;2.58;;;19.30;59.50;;;;;;5020454;28;20161;-66
2024/02/18 07:59:37;;;;;;;2.63;2.00;;;19.30;59.50;;;;;;5020685;28;20124;-65
2024/02/18 08:02:02;;;;;;;2.95;2.38;;;19.30;59.50;;;;;;5021807;28;20038;-66
2024/02/18 08:04:28;;;;;;;2.92;2.35;;;19.20;59.50;;;;;;5001496;28;20025;-65
2024/02/18 08:06:53;;;;;;;4.70;2.83;;;19.20;59.50;;;;;;5020122;28;20359;-68
2024/02/18 08:09:19;;;;;;;5.80;2.05;;;19.20;59.50;;;;;;5022173;28;20029;-65
2024/02/18 08:11:45;;;;;;;4.55;2.47;;;19.20;59.60;;;;;;5021815;28;20029;-65
2024/02/18 08:14:10;;;;;;;2.88;2.30;;;19.20;59.60;;;;;;5026901;28;20078;-64
2024/02/18 08:16:36;;;;;;;3.58;2.40;;;19.20;59.50;;;;;;5021302;28;20034;-66
2024/02/18 08:19:01;;;;;;;5.47;2.10;;;19.20;59.60;;;;;;5022435;28;20026;-65
2024/02/18 08:21:27;;;;;;;3.47;2.50;;;19.20;60.30;;;;;;5021849;28;20037;-65
2024/02/18 08:23:53;;;;;;;3.85;2.40;;;19.10;59.60;;;;;;5012333;28;20377;-65
2024/02/18 08:26:23;;;;;;;3.60;2.30;;;19.20;59.70;;;;;;5017664;28;20028;-65
2024/02/18 08:28:50;;;;;;;5.65;2.83;;;19.20;59.70;;;;;;5025099;28;20034;-65
2024/02/18 08:31:16;;;;;;;2.90;2.28;;;19.10;59.70;;;;;;4996784;28;20528;-65
2024/02/18 08:33:42;;;;;;;4.63;2.30;;;19.10;59.70;;;;;;5020195;28;20041;-65
2024/02/18 08:36:08;;;;;;;4.78;2.28;;;19.10;59.80;;;;;;5014488;28;20045;-65
2024/02/18 08:38:33;;;;;;;5.82;2.45;;;19.10;59.80;;;;;;5025025;28;20100;-64
2024/02/18 08:40:59;;;;;;;4.68;2.50;;;19.10;59.90;;;;;;5013313;28;20030;-64
2024/02/18 08:43:24;;;;;;;6.45;2.63;;;19.10;59.90;;;;;;5021891;28;20059;-65
2024/02/18 08:45:49;;;;;;;5.93;2.38;;;19.10;60.00;;;;;;5019226;28;20038;-65
2024/02/18 08:48:15;;;;;;;4.07;2.60;;;19.10;60.00;;;;;;5020985;28;20424;-64
2024/02/18 08:50:41;;;;;;;4.13;2.70;;;19.00;60.10;;;;;;5017215;28;20053;-65
2024/02/18 08:53:06;;;;;;;4.00;2.58;;;19.00;60.00;;;;;;5019978;28;20522;-64
2024/02/18 08:55:32;;;;;;;4.97;2.45;;;19.00;60.30;;;;;;5017668;28;20635;-65
2024/02/18 08:57:57;;;;;;;4.45;2.78;;;19.00;60.20;;;;;;5023335;28;20038;-64
2024/02/18 09:00:23;;;;;;;6.45;2.50;;;19.00;60.30;;;;;;5020845;28;20373;-65
2024/02/18 09:02:48;;;;;;;3.80;2.33;;;19.00;60.30;;;;;;4999640;28;20057;-65
2024/02/18 09:05:14;;;;;;;7.43;2.97;;;19.00;60.30;;;;;;5020083;28;20140;-65
2024/02/18 09:07:39;;;;;;;4.07;2.10;;;19.00;60.30;;;;;;5024539;28;20116;-66
2024/02/18 09:10:05;;;;;;;5.22;2.22;;;19.00;60.20;;;;;;5015846;28;20038;-66
2024/02/18 09:12:30;;;;;;;6.07;2.25;;;19.00;60.20;;;;;;5024717;28;20025;-65
2024/02/18 09:14:56;;;;;;;4.03;2.33;;;19.00;60.20;;;;;;5013860;28;20158;-66
2024/02/18 09:17:22;;;;;;;3.85;1.95;;;19.00;60.10;;;;;;5024265;28;20028;-65
2024/02/18 09:19:48;;;;;;;4.38;2.65;;;19.00;60.00;;;;;;5018579;28;20049;-65
2024/02/18 09:22:14;;;;;;;5.95;1.90;;;19.00;59.80;;;;;;5020425;28;20033;-66
2024/02/18 09:24:43;;;;;;;3.70;2.40;;;19.10;59.60;;;;;;5018423;28;20175;-65
2024/02/18 09:27:08;;;;;;;3.10;1.98;;;19.20;59.40;;;;;;5020055;28;20030;-65
2024/02/18 09:29:34;;;;;;;4.95;2.10;;;19.20;59.30;;;;;;5010318;28;20026;-65
2024/02/18 09:31:59;;;;;;;4.80;2.17;;;19.30;59.00;;;;;;5003521;28;20437;-67
2024/02/18 09:34:25;;;;;;;3.55;1.95;;;19.50;58.90;;;;;;5017374;28;20094;-67
2024/02/18 09:36:50;;;;;;;2.17;1.67;;;19.60;58.50;;;;;;4995285;28;20482;-67
2024/02/18 09:39:16;;;;;;;4.38;1.83;;;19.70;58.20;;;;;;5018558;28;20040;-66
2024/02/18 09:41:45;;;;;;;3.65;2.00;;;19.80;58.00;;;;;;5018789;28;20037;-67
2024/02/18 09:44:13;;;;;;;2.58;2.10;;;19.90;57.80;;;;;;5017313;28;20037;-67
2024/02/18 09:46:41;;;;;;;3.75;2.05;;;20.00;57.60;;;;;;5023114;28;20029;-66
2024/02/18 09:49:08;;;;;;;5.03;1.80;;;20.10;57.40;;;;;;5015062;28;20040;-67
2024/02/18 09:51:35;;;;;;;4.00;1.65;;;20.20;57.30;;;;;;5022224;28;20036;-67
2024/02/18 09:54:04;;;;;;;3.55;1.80;;;20.30;57.20;;;;;;5012329;28;20033;-66
2024/02/18 09:56:30;;;;;;;2.35;1.58;;;20.30;57.00;;;;;;5002925;28;20677;-67
2024/02/18 09:58:56;;;;;;;3.03;1.70;;;20.40;56.90;;;;;;5013455;28;20044;-66
2024/02/18 10:01:22;;;;;;;2.33;1.58;;;20.40;56.90;;;;;;5024133;28;20064;-65
2024/02/18 10:03:49;;;;;;;3.72;2.00;;;20.50;57.00;;;;;;5013894;28;20037;-66
2024/02/18 10:06:15;;;;;;;1.92;1.63;;;20.40;56.90;;;;;;5021605;28;20074;-66
2024/02/18 10:08:51;;;;;;;1.65;1.50;;;20.40;57.00;;;;;;5012726;28;20136;-67
2024/02/18 10:11:20;;;;;;;1.60;1.50;;;20.40;57.00;;;;;;5020995;28;20041;-67
2024/02/18 10:13:51;;;;;;;3.95;1.77;;;20.30;57.20;;;;;;5012400;28;20470;-66
2024/02/18 10:16:16;;;;;;;2.65;1.30;;;20.30;57.30;;;;;;5019461;28;20038;-67
2024/02/18 10:18:45;;;;;;;3.05;1.60;;;20.20;57.40;;;;;;5015421;28;20037;-66
2024/02/18 10:21:11;;;;;;;1.85;1.50;;;20.20;57.50;;;;;;5019236;28;20037;-67
2024/02/18 10:23:39;;;;;;;1.90;1.60;;;20.10;57.60;;;;;;5014630;28;20335;-67
2024/02/18 10:26:07;;;;;;;1.75;1.35;;;20.10;57.80;;;;;;5020290;28;20091;-66
2024/02/18 10:28:33;;;;;;;2.03;1.60;;;20.10;57.90;;;;;;5012278;28;20064;-67
2024/02/18 10:31:00;;;;;;;2.35;1.50;;;20.00;57.90;;;;;;5000301;28;20108;-68
2024/02/18 10:33:26;;;;;;;2.58;1.58;;;20.00;58.00;;;;;;5018406;28;20124;-66
2024/02/18 10:35:52;;;;;;;3.40;1.73;;;19.90;58.10;;;;;;5016416;28;20125;-66
2024/02/18 10:38:24;;;;;;;2.35;1.35;;;19.90;58.20;;;;;;5020910;28;20084;-66
2024/02/18 10:40:58;;;;;;;1.98;1.50;;;19.90;58.30;;;;;;5013276;28;20034;-67
2024/02/18 10:43:26;;;;;;;2.78;1.50;;;19.80;58.20;;;;;;5010841;28;20036;-65
2024/02/18 10:45:53;;;;;;;1.85;1.30;;;19.80;58.30;;;;;;5017237;28;20084;-68
2024/02/18 10:48:20;;;;;;;2.22;1.27;;;19.80;58.40;;;;;;4999113;28;20551;-66
2024/02/18 10:50:49;;;;;;;1.20;1.10;;;19.80;58.50;;;;;;5011999;28;20026;-66
2024/02/18 10:53:32;;;;;;;1.83;1.25;;;19.70;58.30;;;;;;5017278;28;20037;-66
2024/02/18 10:56:22;;;;;;;4.10;1.38;;;19.70;58.50;;;;;;5013348;28;20539;-66
2024/02/18 10:59:11;;;;;;;2.42;1.50;;;19.70;58.50;;;;;;5007128;28;20040;-66
2024/02/18 11:01:42;;;;;;;3.22;1.17;;;19.60;58.50;;;;;;5004899;28;20037;-65
2024/02/18 11:04:10;;;;;;;2.17;1.27;;;19.60;58.60;;;;;;5018450;28;20125;-65
2024/02/18 11:06:36;;;;;;;2.20;1.25;;;19.60;58.70;;;;;;5015430;28;20033;-66
2024/02/18 11:09:02;;;;;;;2.85;1.70;;;19.60;58.70;;;;;;5022733;28;20044;-68
2024/02/18 11:11:29;;;;;;;3.33;1.42;;;19.60;58.70;;;;;;5015203;28;20064;-68
2024/02/18 11:13:56;;;;;;;2.03;1.55;;;19.60;58.80;;;;;;5013847;28;20507;-68
2024/02/18 11:16:23;;;;;;;1.65;1.10;;;19.50;58.80;;;;;;5009586;28;20056;-69
2024/02/18 11:18:49;;;;;;;1.45;1.35;;;19.50;58.90;;;;;;4993488;28;20160;-69
2024/02/18 11:21:15;;;;;;;1.48;1.00;;;19.50;59.50;;;;;;4997166;28;20029;-68
2024/02/18 11:23:55;;;;;;;2.83;1.60;;;19.40;58.90;;;;;;5015058;28;20040;-68
2024/02/18 11:26:21;;;;;;;1.85;1.27;;;19.40;59.00;;;;;;5019107;28;20531;-68
2024/02/18 11:28:47;;;;;;;2.15;1.23;;;19.40;59.10;;;;;;4993865;28;20037;-68
2024/02/18 11:31:25;;;;;;;1.90;1.40;;;19.40;59.10;;;;;;5018400;28;20798;-69
2024/02/18 11:33:51;;;;;;;1.27;0.85;;;19.40;59.20;;;;;;5016270;28;20052;-69
2024/02/18 11:36:17;;;;;;;1.48;1.15;;;19.40;59.10;;;;;;5001525;28;20113;-68
2024/02/18 11:38:44;;;;;;;1.48;0.95;;;19.40;59.20;;;;;;5018022;28;20113;-68
2024/02/18 11:41:18;;;;;;;1.88;1.20;;;19.40;59.30;;;;;;5017895;28;20639;-68
2024/02/18 11:43:43;;;;;;;1.45;1.08;;;19.40;59.30;;;;;;5012322;28;20037;-68
2024/02/18 11:46:19;;;;;;;1.27;1.10;;;19.40;59.40;;;;;;5017335;28;20033;-68
2024/02/18 11:48:46;;;;;;;1.35;1.17;;;19.40;59.40;;;;;;5016586;28;20058;-68
2024/02/18 11:51:12;;;;;;;2.35;1.20;;;19.30;59.30;;;;;;5009640;28;20124;-68
2024/02/18 11:53:40;;;;;;;1.55;1.15;;;19.30;59.30;;;;;;5003370;28;20116;-69
2024/02/18 11:56:05;;;;;;;1.25;1.10;;;19.30;59.30;;;;;;5018241;28;20088;-69
2024/02/18 11:58:31;;;;;;;1.50;1.40;;;19.30;59.30;;;;;;5020935;28;20493;-68
2024/02/18 12:01:00;;;;;;;1.00;0.90;;;19.30;59.30;;;;;;5013958;28;20057;-68
2024/02/18 12:03:25;;;;;;;1.25;1.10;;;19.20;59.30;;;;;;5016106;28;20049;-68
2024/02/18 12:05:51;;;;;;;1.60;1.05;;;19.30;59.40;;;;;;5011188;28;20026;-68
2024/02/18 12:08:17;;;;;;;1.67;1.30;;;19.20;59.40;;;;;;5017030;28;20046;-68
2024/02/18 12:10:42;;;;;;;3.20;1.30;;;19.20;59.50;;;;;;5016429;28;20459;-68
2024/02/18 12:13:08;;;;;;;1.48;1.33;;;19.20;59.50;;;;;;5014655;28;20050;-69
2024/02/18 12:15:33;;;;;;;1.55;1.27;;;19.20;59.50;;;;;;5016518;28;20515;-68
2024/02/18 12:18:02;;;;;;;1.13;0.90;;;19.20;59.50;;;;;;4996933;28;20029;-66
2024/02/18 12:20:30;;;;;;;2.45;0.98;;;19.20;59.60;;;;;;5018243;28;20033;-69
2024/02/18 12:22:56;;;;;;;1.50;1.23;;;19.20;59.60;;;;;;4992523;28;20086;-68
2024/02/18 12:25:22;;;;;;;1.08;0.95;;;19.20;59.60;;;;;;5017040;28;20071;-67
2024/02/18 12:27:48;;;;;;;1.35;0.88;;;19.10;59.50;;;;;;4997058;28;20026;-68
2024/02/18 12:30:14;;;;;;;0.90;0.80;;;19.20;59.60;;;;;;5020285;28;20795;-68
2024/02/18 12:32:40;;;;;;;1.25;1.10;;;19.10;59.60;;;;;;5018644;28;20471;-68
2024/02/18 12:35:05;;;;;;;1.00;0.90;;;19.10;59.60;;;;;;4997836;28;20030;-68
2024/02/18 12:37:31;;;;;;;0.90;0.80;;;19.10;59.60;;;;;;5000469;28;20607;-69
2024/02/18 12:39:58;;;;;;;1.25;1.00;;;19.10;59.60;;;;;;5019455;28;20075;-69
2024/02/18 12:42:27;;;;;;;1.02;0.80;;;19.10;59.60;;;;;;4996746;28;20030;-69
2024/02/18 12:44:52;;;;;;;1.30;1.20;;;19.10;59.60;;;;;;5002598;28;20120;-68